createdAt,value
2022-11-02T00:01:31.682Z,100.00
2022-11-02T00:03:59.427Z,100.00
2022-11-02T00:06:27.200Z,100.00
2022-11-02T00:08:54.924Z,100.00
2022-11-02T00:11:23.961Z,100.00
2022-11-02T00:13:51.821Z,100.00
2022-11-02T00:16:21.930Z,100.00
2022-11-02T00:18:55.847Z,100.00
2022-11-02T00:21:26.558Z,100.00
2022-11-02T00:23:54.915Z,100.00
2022-11-02T00:26:24.276Z,100.00
2022-11-02T00:28:52.074Z,100.00
2022-11-02T00:31:19.782Z,100.00
2022-11-02T00:33:47.521Z,100.00
2022-11-02T00:36:15.522Z,100.00
2022-11-02T00:38:43.245Z,100.00
2022-11-02T00:41:12.737Z,100.00
2022-11-02T00:43:41.964Z,100.00
2022-11-02T00:46:09.706Z,100.00
2022-11-02T00:48:37.437Z,100.00
2022-11-02T00:51:05.640Z,100.00
2022-11-02T00:53:33.580Z,100.00
2022-11-02T00:56:01.414Z,100.00
2022-11-02T00:58:29.877Z,100.00
2022-11-02T01:00:59.665Z,100.00
2022-11-02T01:03:27.372Z,100.00
2022-11-02T01:05:55.094Z,100.00
2022-11-02T01:08:22.918Z,100.00
2022-11-02T01:10:50.816Z,100.00
2022-11-02T01:13:18.513Z,100.00
2022-11-02T01:15:46.372Z,100.00
2022-11-02T01:18:15.456Z,100.00
2022-11-02T01:20:43.258Z,100.00
2022-11-02T01:23:10.913Z,100.00
2022-11-02T01:25:38.989Z,100.00
2022-11-02T01:28:06.883Z,100.00
2022-11-02T01:30:34.868Z,100.00
2022-11-02T01:33:02.594Z,100.00
2022-11-02T01:35:31.721Z,100.00
2022-11-02T01:37:59.501Z,100.00
2022-11-02T01:40:27.292Z,100.00
2022-11-02T01:42:54.993Z,100.00
2022-11-02T01:45:22.745Z,100.00
2022-11-02T01:47:51.009Z,100.00
2022-11-02T01:50:21.879Z,100.00
2022-11-02T01:52:51.021Z,100.00
2022-11-02T01:55:22.619Z,100.00
2022-11-02T01:57:55.982Z,100.00
2022-11-02T02:00:24.226Z,100.00
2022-11-02T02:02:57.778Z,100.00
2022-11-02T02:05:26.633Z,100.00
2022-11-02T02:07:56.940Z,100.00
2022-11-02T02:10:24.862Z,100.00
2022-11-02T02:12:52.704Z,100.00
2022-11-02T02:15:26.351Z,100.00
2022-11-02T02:18:00.972Z,100.00
2022-11-02T02:20:48.949Z,100.00
2022-11-02T02:23:38.668Z,100.00
2022-11-02T02:26:47.408Z,100.00
2022-11-02T02:29:22.604Z,100.00
2022-11-02T02:31:56.735Z,100.00
2022-11-02T02:34:30.043Z,100.00
2022-11-02T02:37:02.615Z,100.00
2022-11-02T02:39:40.731Z,100.00
2022-11-02T02:42:13.874Z,100.00
2022-11-02T02:44:47.871Z,100.00
2022-11-02T02:47:18.727Z,100.00
2022-11-02T02:49:52.092Z,100.00
2022-11-02T02:52:23.462Z,100.00
2022-11-02T02:54:53.409Z,100.00
2022-11-02T02:57:24.386Z,100.00
2022-11-02T02:59:55.007Z,100.00
2022-11-02T03:02:26.045Z,100.00
2022-11-02T03:04:54.392Z,100.00
2022-11-02T03:07:29.560Z,100.00
2022-11-02T03:10:12.677Z,100.00
2022-11-02T03:12:48.100Z,100.00
2022-11-02T03:15:28.158Z,100.00
2022-11-02T03:18:04.633Z,100.00
2022-11-02T03:20:44.054Z,100.00
2022-11-02T03:23:20.085Z,100.00
2022-11-02T03:25:57.761Z,100.00
2022-11-02T03:28:35.607Z,100.00
2022-11-02T03:31:11.073Z,100.00
2022-11-02T03:33:44.773Z,100.00
2022-11-02T03:36:18.212Z,100.00
2022-11-02T03:38:51.414Z,100.00
2022-11-02T03:41:21.798Z,100.00
2022-11-02T03:43:54.335Z,100.00
2022-11-02T03:46:24.897Z,100.00
2022-11-02T03:48:57.048Z,100.00
2022-11-02T03:51:28.376Z,100.00
2022-11-02T03:54:00.439Z,100.00
2022-11-02T03:56:36.780Z,100.00
2022-11-02T03:59:05.337Z,100.00
2022-11-02T04:01:40.272Z,100.00
2022-11-02T04:04:08.214Z,100.00
2022-11-02T04:06:37.126Z,100.00
2022-11-02T04:09:06.056Z,100.00
2022-11-02T04:11:51.430Z,100.00
2022-11-02T04:14:37.329Z,100.00
2022-11-02T04:17:27.036Z,100.00
2022-11-02T04:19:55.595Z,100.00
2022-11-02T04:22:41.521Z,100.00
2022-11-02T04:25:19.258Z,100.00
2022-11-02T04:27:54.708Z,100.00
2022-11-02T04:30:27.994Z,100.00
2022-11-02T04:33:15.609Z,100.00
2022-11-02T04:35:53.252Z,100.00
2022-11-02T04:38:39.377Z,100.00
2022-11-02T04:41:23.329Z,100.00
2022-11-02T04:43:54.327Z,100.00
2022-11-02T04:46:24.172Z,100.00
2022-11-02T04:48:54.927Z,100.00
2022-11-02T04:51:24.616Z,100.00
2022-11-02T04:53:53.962Z,100.00
2022-11-02T04:56:22.232Z,100.00
2022-11-02T04:58:51.103Z,100.00
2022-11-02T05:01:20.520Z,100.00
2022-11-02T05:03:49.138Z,100.00
2022-11-02T05:06:20.243Z,100.00
2022-11-02T05:08:49.189Z,100.00
2022-11-02T05:11:17.804Z,100.00
2022-11-02T05:13:45.806Z,100.00
2022-11-02T05:16:17.181Z,100.00
2022-11-02T05:18:45.979Z,100.00
2022-11-02T05:21:15.416Z,100.00
2022-11-02T05:23:44.744Z,100.00
2022-11-02T05:26:13.477Z,100.00
2022-11-02T05:28:45.153Z,100.00
2022-11-02T05:31:12.981Z,100.00
2022-11-02T05:33:41.359Z,100.00
2022-11-02T05:36:14.185Z,100.00
2022-11-02T05:38:46.781Z,100.00
2022-11-02T05:41:14.631Z,100.00
2022-11-02T05:43:44.108Z,100.00
2022-11-02T05:46:14.912Z,100.00
2022-11-02T05:48:42.941Z,100.00
2022-11-02T05:51:11.195Z,100.00
2022-11-02T05:53:39.161Z,100.00
2022-11-02T05:56:10.946Z,100.00
2022-11-02T05:58:38.843Z,100.00
2022-11-02T06:01:08.503Z,100.00
2022-11-02T06:03:37.110Z,100.00
2022-11-02T06:06:06.806Z,100.00
2022-11-02T06:08:35.619Z,100.00
2022-11-02T06:11:06.059Z,100.00
2022-11-02T06:13:35.383Z,100.00
2022-11-02T06:16:05.300Z,100.00
2022-11-02T06:18:33.362Z,100.00
2022-11-02T06:21:01.566Z,100.00
2022-11-02T06:23:29.899Z,100.00
2022-11-02T06:25:59.355Z,100.00
2022-11-02T06:28:27.830Z,100.00
2022-11-02T06:30:58.410Z,100.00
2022-11-02T06:33:26.227Z,100.00
2022-11-02T06:35:55.306Z,100.00
2022-11-02T06:38:24.955Z,100.00
2022-11-02T06:40:57.342Z,100.00
2022-11-02T06:43:28.253Z,100.00
2022-11-02T06:45:58.880Z,100.00
2022-11-02T06:48:34.275Z,100.00
2022-11-02T06:51:03.045Z,100.00
2022-11-02T06:53:31.181Z,100.00
2022-11-02T06:56:00.360Z,100.00
2022-11-02T06:58:28.646Z,100.00
2022-11-02T07:01:00.327Z,100.00
2022-11-02T07:03:28.471Z,100.00
2022-11-02T07:05:56.473Z,100.00
2022-11-02T07:08:24.799Z,100.00
2022-11-02T07:10:52.806Z,100.00
2022-11-02T07:13:20.541Z,100.00
2022-11-02T07:15:48.275Z,100.00
2022-11-02T07:18:17.494Z,100.00
2022-11-02T07:20:45.185Z,100.00
2022-11-02T07:23:12.918Z,100.00
2022-11-02T07:25:41.490Z,100.00
2022-11-02T07:28:09.981Z,100.00
2022-11-02T07:30:37.907Z,100.00
2022-11-02T07:33:05.982Z,100.00
2022-11-02T07:35:35.244Z,100.00
2022-11-02T07:38:04.744Z,100.00
2022-11-02T07:40:42.145Z,100.00
2022-11-02T07:43:11.796Z,100.00
2022-11-02T07:45:43.551Z,100.00
2022-11-02T07:48:14.076Z,100.00
2022-11-02T07:50:45.410Z,100.00
2022-11-02T07:53:13.227Z,100.00
2022-11-02T07:55:46.404Z,100.00
2022-11-02T07:58:14.684Z,100.00
2022-11-02T08:00:42.791Z,100.00
2022-11-02T08:03:12.003Z,100.00
2022-11-02T08:05:41.442Z,100.00
2022-11-02T08:08:16.724Z,100.00
2022-11-02T08:10:46.113Z,100.00
2022-11-02T08:13:15.685Z,100.00
2022-11-02T08:15:43.702Z,100.00
2022-11-02T08:18:15.118Z,100.00
2022-11-02T08:20:43.234Z,100.00
2022-11-02T08:23:13.555Z,100.00
2022-11-02T08:25:47.719Z,100.00
2022-11-02T08:28:19.002Z,100.00
2022-11-02T08:30:46.926Z,100.00
2022-11-02T08:33:17.551Z,100.00
2022-11-02T08:35:52.126Z,100.00
2022-11-02T08:38:23.456Z,100.00
2022-11-02T08:40:51.154Z,100.00
2022-11-02T08:43:18.885Z,100.00
2022-11-02T08:48:34.840Z,100.00
2022-11-02T08:51:02.746Z,100.00
2022-11-02T08:53:31.863Z,100.00
2022-11-02T08:55:59.601Z,100.00
2022-11-02T08:58:27.543Z,100.00
2022-11-02T09:00:55.889Z,100.00
2022-11-02T09:03:26.846Z,100.00
2022-11-02T09:05:58.956Z,100.00
2022-11-02T09:08:27.735Z,100.00
2022-11-02T09:11:00.203Z,100.00
2022-11-02T09:13:28.339Z,100.00
2022-11-02T09:15:57.551Z,100.00
2022-11-02T09:18:25.384Z,100.00
2022-11-02T09:20:53.210Z,100.00
2022-11-02T09:23:22.027Z,100.00
2022-11-02T09:25:50.354Z,100.00
2022-11-02T09:28:19.434Z,100.00
2022-11-02T09:30:47.181Z,100.00
2022-11-02T09:33:14.918Z,100.00
2022-11-02T09:35:45.758Z,100.00
2022-11-02T09:38:14.071Z,100.00
2022-11-02T09:40:46.014Z,100.00
2022-11-02T09:43:31.914Z,99.80
2022-11-02T09:46:03.455Z,99.28
2022-11-02T09:48:35.368Z,99.39
2022-11-02T09:51:07.773Z,99.19
2022-11-02T09:53:48.700Z,97.65
2022-11-02T09:56:19.753Z,99.28
2022-11-02T09:58:54.423Z,94.80
2022-11-02T10:01:39.892Z,95.14
2022-11-02T10:04:27.210Z,95.49
2022-11-02T10:07:04.033Z,94.51
2022-11-02T10:09:38.609Z,92.62
2022-11-02T10:12:13.538Z,90.32
2022-11-02T10:14:54.078Z,90.37
2022-11-02T10:17:26.100Z,88.07
2022-11-02T10:19:57.039Z,89.30
2022-11-02T10:22:28.981Z,88.73
2022-11-02T10:24:58.763Z,84.35
2022-11-02T10:27:28.458Z,86.18
2022-11-02T10:30:02.747Z,82.47
2022-11-02T10:32:32.541Z,80.43
2022-11-02T10:35:26.108Z,78.99
2022-11-02T10:38:04.429Z,78.34
2022-11-02T10:40:58.516Z,79.65
2022-11-02T10:43:38.099Z,76.42
2022-11-02T10:46:30.368Z,78.30
2022-11-02T10:49:06.642Z,73.01
2022-11-02T10:51:34.862Z,71.40
2022-11-02T10:54:02.909Z,69.93
2022-11-02T10:56:31.904Z,72.95
2022-11-02T10:59:04.785Z,75.68
2022-11-02T11:01:33.998Z,71.16
2022-11-02T11:04:02.895Z,71.98
2022-11-02T11:06:35.286Z,71.35
2022-11-02T11:09:07.258Z,73.52
2022-11-02T11:11:37.213Z,72.40
2022-11-02T11:19:51.474Z,71.58
2022-11-02T11:22:28.261Z,68.92
2022-11-02T11:25:26.785Z,70.30
2022-11-02T11:27:56.776Z,69.41
2022-11-02T11:33:20.374Z,70.04
2022-11-02T11:35:50.986Z,72.69
2022-11-02T11:38:22.256Z,74.68
2022-11-02T11:40:54.332Z,74.13
2022-11-02T11:43:25.821Z,75.66
2022-11-02T11:46:04.843Z,75.35
2022-11-02T11:48:39.292Z,74.13
2022-11-02T11:51:27.471Z,75.03
2022-11-02T11:54:22.931Z,77.29
2022-11-02T11:56:52.281Z,75.43
2022-11-02T11:59:27.016Z,75.88
2022-11-02T12:01:59.193Z,75.72
2022-11-02T12:04:48.191Z,73.55
2022-11-02T12:07:34.335Z,75.08
2022-11-02T12:10:11.876Z,78.40
2022-11-02T12:12:55.562Z,74.34
2022-11-02T12:15:38.146Z,74.14
2022-11-02T12:18:20.309Z,75.26
2022-11-02T12:21:02.824Z,73.40
2022-11-02T12:24:12.504Z,73.55
2022-11-02T12:26:54.065Z,73.40
2022-11-02T12:29:57.337Z,73.24
2022-11-02T12:32:43.716Z,72.09
2022-11-02T12:35:30.147Z,71.48
2022-11-02T12:38:20.904Z,71.25
2022-11-02T12:41:00.709Z,72.01
2022-11-02T12:43:43.650Z,72.58
2022-11-02T12:46:27.777Z,71.66
2022-11-02T12:49:06.942Z,71.67
2022-11-02T12:51:38.524Z,72.17
2022-11-02T12:54:12.457Z,73.55
2022-11-02T12:56:47.069Z,72.50
2022-11-02T12:59:20.847Z,73.35
2022-11-02T13:01:52.862Z,73.80
2022-11-02T13:04:28.119Z,75.02
2022-11-02T13:07:04.330Z,75.83
2022-11-02T13:09:37.855Z,75.30
2022-11-02T13:12:12.685Z,74.68
2022-11-02T13:14:43.001Z,73.55
2022-11-02T13:17:16.181Z,72.33
2022-11-02T13:19:48.402Z,72.88
2022-11-02T13:22:19.218Z,72.48
2022-11-02T13:24:52.451Z,72.95
2022-11-02T13:27:36.493Z,72.60
2022-11-02T13:30:07.632Z,73.46
2022-11-02T13:32:41.842Z,72.69
2022-11-02T13:35:18.339Z,71.36
2022-11-02T13:37:50.584Z,72.16
2022-11-02T13:40:26.468Z,72.74
2022-11-02T13:43:26.098Z,72.17
2022-11-02T13:46:26.346Z,72.11
2022-11-02T13:49:02.358Z,72.26
2022-11-02T13:51:37.566Z,72.41
2022-11-02T13:54:12.770Z,72.23
2022-11-02T13:56:42.916Z,70.16
2022-11-02T13:59:19.014Z,72.02
2022-11-02T14:01:47.653Z,70.63
2022-11-02T14:04:17.023Z,71.06
2022-11-02T14:06:49.760Z,70.75
2022-11-02T14:09:35.573Z,70.31
2022-11-02T14:12:26.225Z,69.55
2022-11-02T14:15:31.266Z,70.38
2022-11-02T14:18:08.853Z,71.77
2022-11-02T14:20:38.535Z,71.39
2022-11-02T14:23:34.726Z,71.04
2022-11-02T14:26:02.527Z,72.13
2022-11-02T14:28:42.681Z,72.59
2022-11-02T14:31:40.363Z,74.09
2022-11-02T14:34:26.066Z,74.34
2022-11-02T14:37:07.658Z,74.03
2022-11-02T14:39:44.283Z,75.34
2022-11-02T14:42:30.655Z,76.55
2022-11-02T14:45:36.371Z,76.49
2022-11-02T14:48:07.178Z,76.55
2022-11-02T14:50:35.226Z,77.55
2022-11-02T14:53:07.650Z,77.05
2022-11-02T14:55:38.206Z,77.04
2022-11-02T14:58:11.190Z,80.33
2022-11-02T15:00:58.242Z,81.25
2022-11-02T15:03:38.629Z,82.80
2022-11-02T15:06:08.982Z,84.41
2022-11-02T15:08:49.156Z,84.07
2022-11-02T15:11:46.359Z,81.06
2022-11-02T15:14:52.669Z,79.58
2022-11-02T15:17:53.942Z,81.01
2022-11-02T15:20:28.392Z,82.87
2022-11-02T15:23:07.492Z,85.22
2022-11-02T15:25:41.334Z,85.88
2022-11-02T15:28:14.399Z,87.27
2022-11-02T15:30:45.745Z,87.66
2022-11-02T15:33:20.939Z,85.76
2022-11-02T15:35:52.545Z,91.17
2022-11-02T15:38:32.596Z,92.04
2022-11-02T15:41:14.099Z,92.09
2022-11-02T15:44:08.931Z,97.43
2022-11-02T15:46:47.820Z,89.54
2022-11-02T15:49:32.810Z,90.05
2022-11-02T15:52:10.894Z,85.25
2022-11-02T15:54:52.104Z,80.64
2022-11-02T15:57:30.189Z,80.37
2022-11-02T16:00:17.078Z,79.12
2022-11-02T16:02:48.356Z,80.42
2022-11-02T16:05:25.512Z,84.07
2022-11-02T16:08:11.495Z,83.70
2022-11-02T16:10:42.371Z,83.27
2022-11-02T16:13:16.863Z,86.43
2022-11-02T16:15:45.376Z,83.85
2022-11-02T16:18:29.343Z,76.13
2022-11-02T16:21:02.158Z,75.53
2022-11-02T16:23:32.664Z,76.73
2022-11-02T16:26:02.346Z,76.96
2022-11-02T16:28:32.000Z,79.11
2022-11-02T16:31:03.342Z,81.88
2022-11-02T16:33:38.630Z,82.29
2022-11-02T16:36:08.652Z,82.34
2022-11-02T16:38:43.614Z,85.10
2022-11-02T16:41:11.600Z,84.78
2022-11-02T16:43:46.117Z,86.88
2022-11-02T16:46:17.888Z,85.28
2022-11-02T16:49:16.268Z,82.85
2022-11-02T16:51:51.362Z,85.76
2022-11-02T16:54:41.179Z,86.48
2022-11-02T16:57:16.904Z,86.72
2022-11-02T16:59:52.242Z,86.09
2022-11-02T17:02:25.981Z,85.54
2022-11-02T17:05:02.601Z,85.24
2022-11-02T17:07:43.831Z,85.22
2022-11-02T17:10:21.340Z,89.39
2022-11-02T17:13:21.468Z,90.62
2022-11-02T17:15:51.290Z,91.27
2022-11-02T17:18:29.004Z,89.72
2022-11-02T17:21:26.214Z,94.58
2022-11-02T17:23:56.470Z,93.41
2022-11-02T17:26:30.858Z,93.87
2022-11-02T17:29:03.363Z,95.81
2022-11-02T17:31:35.985Z,94.17
2022-11-02T17:34:10.446Z,91.96
2022-11-02T17:36:42.675Z,93.53
2022-11-02T17:39:14.888Z,94.64
2022-11-02T17:42:01.010Z,92.55
2022-11-02T17:44:28.735Z,92.06
2022-11-02T17:46:56.525Z,95.28
2022-11-02T17:49:24.264Z,94.64
2022-11-02T17:51:52.039Z,97.16
2022-11-02T17:54:21.104Z,92.81
2022-11-02T17:56:48.822Z,93.74
2022-11-02T17:59:16.566Z,92.62
2022-11-02T18:01:44.547Z,92.46
2022-11-02T18:04:13.424Z,94.17
2022-11-02T18:06:41.230Z,95.09
2022-11-02T18:09:13.788Z,92.34
2022-11-02T18:11:42.954Z,93.00
2022-11-02T18:14:15.691Z,93.16
2022-11-02T18:16:43.853Z,91.64
2022-11-02T18:19:11.604Z,90.82
2022-11-02T18:21:39.294Z,90.89
2022-11-02T18:24:07.706Z,92.15
2022-11-02T18:26:36.081Z,93.42
2022-11-02T18:29:05.666Z,91.87
2022-11-02T18:31:35.816Z,94.66
2022-11-02T18:34:04.060Z,94.23
2022-11-02T18:36:31.833Z,94.59
2022-11-02T18:38:59.712Z,91.11
2022-11-02T18:41:30.943Z,92.24
2022-11-02T18:44:04.646Z,93.76
2022-11-02T18:46:37.207Z,94.70
2022-11-02T18:49:06.644Z,93.73
2022-11-02T18:51:35.118Z,95.71
2022-11-02T18:54:04.685Z,93.76
2022-11-02T18:56:32.453Z,94.59
2022-11-02T18:59:00.596Z,96.45
2022-11-02T19:01:28.935Z,96.30
2022-11-02T19:04:00.108Z,97.51
2022-11-02T19:06:47.218Z,97.08
2022-11-02T19:09:23.345Z,97.34
2022-11-02T19:11:54.513Z,99.49
2022-11-02T19:14:23.317Z,98.76
2022-11-02T19:16:51.375Z,99.39
2022-11-02T19:19:20.649Z,99.20
2022-11-02T19:21:48.663Z,100.00
2022-11-02T19:24:16.349Z,100.00
2022-11-02T19:26:44.044Z,99.85
2022-11-02T19:29:11.758Z,100.00
2022-11-02T19:31:39.691Z,99.02
2022-11-02T19:34:07.636Z,100.00
2022-11-02T19:36:37.460Z,99.44
2022-11-02T19:39:07.080Z,100.00
2022-11-02T19:41:34.957Z,100.00
2022-11-02T19:44:02.706Z,100.00
2022-11-02T19:46:30.501Z,100.00
2022-11-02T19:48:58.247Z,100.00
2022-11-02T19:51:28.273Z,100.00
2022-11-02T19:53:59.321Z,100.00
2022-11-02T19:56:28.704Z,100.00
2022-11-02T19:58:57.084Z,100.00
2022-11-02T20:01:26.464Z,100.00
2022-11-02T20:03:55.372Z,100.00
2022-11-02T20:06:26.431Z,100.00
2022-11-02T20:08:56.001Z,100.00
2022-11-02T20:11:28.451Z,100.00
2022-11-02T20:13:58.042Z,100.00
2022-11-02T20:16:26.265Z,100.00
2022-11-02T20:18:55.288Z,100.00
2022-11-02T20:21:29.843Z,100.00
2022-11-02T20:24:00.704Z,100.00
2022-11-02T20:26:32.055Z,100.00
2022-11-02T20:29:01.237Z,100.00
2022-11-02T20:31:30.162Z,100.00
2022-11-02T20:33:59.093Z,100.00
2022-11-02T20:36:27.765Z,100.00
2022-11-02T20:38:56.250Z,100.00
2022-11-02T20:41:25.098Z,100.00
2022-11-02T20:43:55.768Z,100.00
2022-11-02T20:46:42.315Z,100.00
2022-11-02T20:49:22.116Z,100.00
2022-11-02T20:51:57.199Z,100.00
2022-11-02T20:54:26.126Z,100.00
2022-11-02T20:56:53.889Z,100.00
2022-11-02T20:59:23.024Z,100.00
2022-11-02T21:01:50.871Z,100.00
2022-11-02T21:04:21.342Z,100.00
2022-11-02T21:06:50.224Z,100.00
2022-11-02T21:09:18.266Z,100.00
2022-11-02T21:12:03.755Z,100.00
2022-11-02T21:14:32.920Z,100.00
2022-11-02T21:17:02.531Z,100.00
2022-11-02T21:19:30.306Z,100.00
2022-11-02T21:21:59.989Z,100.00
2022-11-02T21:24:28.586Z,100.00
2022-11-02T21:26:56.679Z,100.00
2022-11-02T21:29:24.659Z,100.00
2022-11-02T21:31:54.014Z,100.00
2022-11-02T21:34:21.810Z,100.00
2022-11-02T21:36:49.542Z,100.00
2022-11-02T21:39:17.606Z,100.00
2022-11-02T21:41:45.315Z,100.00
2022-11-02T21:44:13.078Z,100.00
2022-11-02T21:46:40.821Z,100.00
2022-11-02T21:49:10.103Z,100.00
2022-11-02T21:51:38.462Z,100.00
2022-11-02T21:54:06.315Z,100.00
2022-11-02T21:56:35.896Z,100.00
2022-11-02T21:59:05.193Z,100.00
2022-11-02T22:01:48.140Z,100.00
2022-11-02T22:04:21.552Z,100.00
2022-11-02T22:06:50.506Z,100.00
2022-11-02T22:09:18.440Z,100.00
2022-11-02T22:11:46.210Z,100.00
2022-11-02T22:14:13.360Z,100.00
2022-11-02T22:16:42.811Z,100.00
2022-11-02T22:19:12.283Z,100.00
2022-11-02T22:21:44.057Z,100.00
2022-11-02T22:24:12.538Z,100.00
2022-11-02T22:26:41.497Z,100.00
2022-11-02T22:29:09.949Z,100.00
2022-11-02T22:31:39.418Z,100.00
2022-11-02T22:34:09.044Z,100.00
2022-11-02T22:36:38.222Z,100.00
2022-11-02T22:39:08.248Z,100.00
2022-11-02T22:41:37.473Z,100.00
2022-11-02T22:44:07.293Z,100.00
2022-11-02T22:46:37.614Z,100.00
2022-11-02T22:49:06.061Z,100.00
2022-11-02T22:51:35.351Z,100.00
2022-11-02T22:54:04.396Z,100.00
2022-11-02T22:56:34.423Z,100.00
2022-11-02T22:59:02.575Z,100.00
2022-11-02T23:01:31.718Z,100.00
2022-11-02T23:04:01.093Z,100.00
2022-11-02T23:06:29.327Z,100.00
2022-11-02T23:08:58.632Z,100.00
2022-11-02T23:11:30.624Z,100.00
2022-11-02T23:14:01.097Z,100.00
2022-11-02T23:16:31.059Z,100.00
2022-11-02T23:19:28.264Z,100.00
2022-11-02T23:22:15.228Z,100.00
2022-11-02T23:25:02.374Z,100.00
2022-11-02T23:27:30.872Z,100.00
2022-11-02T23:30:31.883Z,100.00
2022-11-02T23:32:59.602Z,100.00
2022-11-02T23:35:45.099Z,100.00
2022-11-02T23:38:12.843Z,100.00
2022-11-02T23:40:40.557Z,100.00
2022-11-02T23:43:08.715Z,100.00
2022-11-02T23:45:37.892Z,100.00
2022-11-02T23:48:06.918Z,100.00
2022-11-02T23:51:07.154Z,100.00
2022-11-02T23:53:52.478Z,100.00
2022-11-02T23:56:38.028Z,100.00
2022-11-02T23:59:08.703Z,100.00
